Hlavní strana
METAR-TAF:

METAR-TAF

Letiště :

Fort McPherson, Severozápadní teritoria, Kanada

zeměpisná šířka: 67-24N, zeměpisná délka: 134-51W, výška: 43 m

Aktuální stav počasí

Zpráva byla vytvořena před 1 hodinou a 10 minutami, v 23:00 UTC
Severní vítr 6 kt
Teplota -4°C
Vlhkost vzduchu 93%
Tlak 1009 hPa
Viditelnost: 1.6 km
Zataženo ve výšce 1100 ft
slabé sněžení

METAR: CZFM 202300Z 36006KT 1SM -SN OVC011 M04/M05 A2980 RMK NS8 4.0/SNWCVR/MUCH LOOSE LAST OBS/NXT 211400Z SLP095

Čas: 18:10 (00:10 UTC)

Předpověď počasí

Zpráva byla vytvořena před 5 hodinami a 32 minutami, v 18:38 UTC
Předpověď platná od 20 v 19 UTC do 20 v 23 UTC
Severní vítr 8 kt
Viditelnost: 1.6 km
Zataženo ve výšce 800 ft
slabé sněžení
Dočasný
od 20 v 19 UTC do 20 v 23 UTC
Viditelnost: 9.7 km
Polojasno ve výšce 800 ft
Zataženo ve výšce 3000 ft
slabé sněžení

TAF: CZFM 201838Z 2019/2023 35008KT 1SM -SN OVC008 TEMPO 2019/2023 6SM -SN SCT008 OVC030 RMK NXT FCST WILL BE ISSUED AT 211545Z

Stav a předpovědi počasí z více než 4 000 letišť (zprávy METAR a TAF).

Červené a žluté tečky na mapě představují dostupné meteorologické stanice.

Když kurzor umístíte na tečku, zobrazí se název stanice.

Pak kliknutím zobrazíte stav a předpověď počasí.

Chcete-li změnit mapu, kliknutím na zelené tlačítko se znaménkem +mapu přiblížíte, kliknutím na zelené tlačítko se znaménkem – mapu oddálíte a kliknutím na zelené šipky přejdete na sousední mapy.


METAR-TAF: